sensor_id;sensor_type;location;lat;lon;timestamp;pressure;altitude;pressure_sealevel;temperature;humidity
55301;BME280;58302;51.446;-2.000;2023-11-21T00:01:54;101025.41;;;8.85;100.00
55301;BME280;58302;51.446;-2.000;2023-11-21T00:04:20;101029.41;;;8.82;100.00
55301;BME280;58302;51.446;-2.000;2023-11-21T00:06:47;101032.13;;;8.82;100.00
55301;BME280;58302;51.446;-2.000;2023-11-21T00:09:13;101029.66;;;8.81;100.00
55301;BME280;58302;51.446;-2.000;2023-11-21T00:11:41;101035.09;;;8.81;100.00
55301;BME280;58302;51.446;-2.000;2023-11-21T00:14:07;101034.97;;;8.76;100.00
55301;BME280;58302;51.446;-2.000;2023-11-21T00:16:34;101033.09;;;8.76;100.00
55301;BME280;58302;51.446;-2.000;2023-11-21T00:19:00;101031.78;;;8.79;100.00
55301;BME280;58302;51.446;-2.000;2023-11-21T00:21:26;101036.88;;;8.75;100.00
55301;BME280;58302;51.446;-2.000;2023-11-21T00:23:51;101035.44;;;8.73;100.00
55301;BME280;58302;51.446;-2.000;2023-11-21T00:26:18;101037.56;;;8.70;100.00
55301;BME280;58302;51.446;-2.000;2023-11-21T00:28:44;101045.13;;;8.68;100.00
55301;BME280;58302;51.446;-2.000;2023-11-21T00:31:11;101048.16;;;8.72;100.00
55301;BME280;58302;51.446;-2.000;2023-11-21T00:33:37;101054.75;;;8.76;100.00
55301;BME280;58302;51.446;-2.000;2023-11-21T00:36:03;101060.91;;;8.71;100.00
55301;BME280;58302;51.446;-2.000;2023-11-21T00:38:29;101058.19;;;8.71;100.00
55301;BME280;58302;51.446;-2.000;2023-11-21T00:40:55;101053.25;;;8.68;100.00
55301;BME280;58302;51.446;-2.000;2023-11-21T00:43:24;101061.97;;;8.70;100.00
55301;BME280;58302;51.446;-2.000;2023-11-21T00:45:50;101064.22;;;8.74;100.00
55301;BME280;58302;51.446;-2.000;2023-11-21T00:48:16;101066.06;;;8.73;100.00
55301;BME280;58302;51.446;-2.000;2023-11-21T00:50:44;101066.91;;;8.74;100.00
55301;BME280;58302;51.446;-2.000;2023-11-21T00:53:10;101072.34;;;8.74;100.00
55301;BME280;58302;51.446;-2.000;2023-11-21T00:55:37;101077.16;;;8.71;100.00
55301;BME280;58302;51.446;-2.000;2023-11-21T00:58:06;101076.34;;;8.71;100.00
55301;BME280;58302;51.446;-2.000;2023-11-21T01:00:35;101071.50;;;8.73;100.00
55301;BME280;58302;51.446;-2.000;2023-11-21T01:03:01;101084.22;;;8.73;100.00
55301;BME280;58302;51.446;-2.000;2023-11-21T01:05:28;101085.88;;;8.74;100.00
55301;BME280;58302;51.446;-2.000;2023-11-21T01:07:54;101079.50;;;8.68;100.00
55301;BME280;58302;51.446;-2.000;2023-11-21T01:10:20;101093.41;;;8.71;100.00
55301;BME280;58302;51.446;-2.000;2023-11-21T01:12:46;101090.69;;;8.71;100.00
55301;BME280;58302;51.446;-2.000;2023-11-21T01:15:12;101094.47;;;8.70;100.00
55301;BME280;58302;51.446;-2.000;2023-11-21T01:17:38;101092.59;;;8.71;100.00
55301;BME280;58302;51.446;-2.000;2023-11-21T01:20:05;101096.63;;;8.68;100.00
55301;BME280;58302;51.446;-2.000;2023-11-21T01:22:37;101105.31;;;8.70;100.00
55301;BME280;58302;51.446;-2.000;2023-11-21T01:25:03;101115.09;;;8.71;100.00
55301;BME280;58302;51.446;-2.000;2023-11-21T01:27:36;101099.91;;;8.70;100.00
55301;BME280;58302;51.446;-2.000;2023-11-21T01:30:05;101112.38;;;8.71;100.00
55301;BME280;58302;51.446;-2.000;2023-11-21T01:32:33;101112.63;;;8.70;100.00
55301;BME280;58302;51.446;-2.000;2023-11-21T01:34:59;101126.75;;;8.72;100.00
55301;BME280;58302;51.446;-2.000;2023-11-21T01:37:25;101131.34;;;8.71;100.00
55301;BME280;58302;51.446;-2.000;2023-11-21T01:39:54;101142.19;;;8.71;100.00
55301;BME280;58302;51.446;-2.000;2023-11-21T01:42:21;101143.25;;;8.70;100.00
55301;BME280;58302;51.446;-2.000;2023-11-21T01:44:47;101151.38;;;8.70;100.00
55301;BME280;58302;51.446;-2.000;2023-11-21T01:47:13;101150.06;;;8.73;100.00
55301;BME280;58302;51.446;-2.000;2023-11-21T01:49:39;101150.94;;;8.74;100.00
55301;BME280;58302;51.446;-2.000;2023-11-21T01:52:06;101155.75;;;8.71;100.00
55301;BME280;58302;51.446;-2.000;2023-11-21T01:54:32;101155.75;;;8.71;100.00
55301;BME280;58302;51.446;-2.000;2023-11-21T01:56:59;101160.34;;;8.71;100.00
55301;BME280;58302;51.446;-2.000;2023-11-21T01:59:34;101165.75;;;8.71;100.00
55301;BME280;58302;51.446;-2.000;2023-11-21T02:02:00;101168.47;;;8.71;100.00
55301;BME280;58302;51.446;-2.000;2023-11-21T02:04:26;101176.22;;;8.67;100.00
55301;BME280;58302;51.446;-2.000;2023-11-21T02:06:52;101176.03;;;8.69;100.00
55301;BME280;58302;51.446;-2.000;2023-11-21T02:09:25;101184.16;;;8.69;100.00
55301;BME280;58302;51.446;-2.000;2023-11-21T02:11:53;101190.03;;;8.66;100.00
55301;BME280;58302;51.446;-2.000;2023-11-21T02:14:21;101197.31;;;8.65;100.00
55301;BME280;58302;51.446;-2.000;2023-11-21T02:16:50;101202.16;;;8.63;100.00
55301;BME280;58302;51.446;-2.000;2023-11-21T02:19:21;101196.75;;;8.63;100.00
55301;BME280;58302;51.446;-2.000;2023-11-21T02:21:57;101205.91;;;8.62;100.00
55301;BME280;58302;51.446;-2.000;2023-11-21T02:24:32;101210.50;;;8.62;100.00
55301;BME280;58302;51.446;-2.000;2023-11-21T02:26:58;101216.75;;;8.62;100.00
55301;BME280;58302;51.446;-2.000;2023-11-21T02:29:24;101218.88;;;8.60;100.00
55301;BME280;58302;51.446;-2.000;2023-11-21T02:31:57;101219.69;;;8.61;100.00
55301;BME280;58302;51.446;-2.000;2023-11-21T02:34:29;101218.44;;;8.63;100.00
55301;BME280;58302;51.446;-2.000;2023-11-21T02:36:55;101209.69;;;8.61;100.00
55301;BME280;58302;51.446;-2.000;2023-11-21T02:39:22;101205.81;;;8.57;100.00
55301;BME280;58302;51.446;-2.000;2023-11-21T02:41:49;101212.50;;;8.55;100.00
55301;BME280;58302;51.446;-2.000;2023-11-21T02:44:30;101208.84;;;8.49;100.00
55301;BME280;58302;51.446;-2.000;2023-11-21T02:46:56;101213.91;;;8.45;100.00
55301;BME280;58302;51.446;-2.000;2023-11-21T02:49:23;101229.13;;;8.47;100.00
55301;BME280;58302;51.446;-2.000;2023-11-21T02:52:08;101230.53;;;8.49;100.00
55301;BME280;58302;51.446;-2.000;2023-11-21T02:54:39;101232.41;;;8.49;100.00
55301;BME280;58302;51.446;-2.000;2023-11-21T02:57:07;101228.06;;;8.48;100.00
55301;BME280;58302;51.446;-2.000;2023-11-21T02:59:52;101225.69;;;8.51;100.00
55301;BME280;58302;51.446;-2.000;2023-11-21T03:02:18;101225.94;;;8.50;100.00
55301;BME280;58302;51.446;-2.000;2023-11-21T03:04:44;101230.66;;;8.54;100.00
55301;BME280;58302;51.446;-2.000;2023-11-21T03:07:15;101232.28;;;8.55;100.00
55301;BME280;58302;51.446;-2.000;2023-11-21T03:09:45;101240.56;;;8.60;100.00
55301;BME280;58302;51.446;-2.000;2023-11-21T03:12:20;101241.38;;;8.61;100.00
55301;BME280;58302;51.446;-2.000;2023-11-21T03:14:57;101241.13;;;8.62;100.00
55301;BME280;58302;51.446;-2.000;2023-11-21T03:17:27;101242.81;;;8.63;100.00
55301;BME280;58302;51.446;-2.000;2023-11-21T03:19:57;101248.81;;;8.65;100.00
55301;BME280;58302;51.446;-2.000;2023-11-21T03:22:27;101244.34;;;8.71;100.00
55301;BME280;58302;51.446;-2.000;2023-11-21T03:24:54;101245.16;;;8.71;100.00
55301;BME280;58302;51.446;-2.000;2023-11-21T03:27:20;101254.13;;;8.72;100.00
55301;BME280;58302;51.446;-2.000;2023-11-21T03:29:49;101253.28;;;8.71;100.00
55301;BME280;58302;51.446;-2.000;2023-11-21T03:32:16;101252.03;;;8.74;100.00
55301;BME280;58302;51.446;-2.000;2023-11-21T03:35:04;101259.91;;;8.76;100.00
55301;BME280;58302;51.446;-2.000;2023-11-21T03:37:35;101258.84;;;8.77;100.00
55301;BME280;58302;51.446;-2.000;2023-11-21T03:40:09;101268.16;;;8.81;100.00
55301;BME280;58302;51.446;-2.000;2023-11-21T03:42:41;101267.09;;;8.82;100.00
55301;BME280;58302;51.446;-2.000;2023-11-21T03:45:08;101264.41;;;8.82;100.00
55301;BME280;58302;51.446;-2.000;2023-11-21T03:47:34;101265.22;;;8.82;100.00
55301;BME280;58302;51.446;-2.000;2023-11-21T03:50:17;101271.84;;;8.86;100.00
55301;BME280;58302;51.446;-2.000;2023-11-21T03:52:48;101273.47;;;8.87;100.00
55301;BME280;58302;51.446;-2.000;2023-11-21T03:55:15;101263.94;;;8.85;100.00
55301;BME280;58302;51.446;-2.000;2023-11-21T03:57:43;101280.31;;;8.90;100.00
55301;BME280;58302;51.446;-2.000;2023-11-21T04:00:11;101279.47;;;8.89;100.00
55301;BME280;58302;51.446;-2.000;2023-11-21T04:02:37;101282.31;;;8.94;100.00
55301;BME280;58302;51.446;-2.000;2023-11-21T04:05:03;101286.34;;;8.92;100.00
55301;BME280;58302;51.446;-2.000;2023-11-21T04:07:30;101286.34;;;8.92;100.00
55301;BME280;58302;51.446;-2.000;2023-11-21T04:10:00;101286.34;;;8.92;100.00
55301;BME280;58302;51.446;-2.000;2023-11-21T04:12:29;101284.69;;;8.91;100.00
55301;BME280;58302;51.446;-2.000;2023-11-21T04:14:58;101298.25;;;8.91;100.00
55301;BME280;58302;51.446;-2.000;2023-11-21T04:20:48;101306.81;;;8.88;100.00
55301;BME280;58302;51.446;-2.000;2023-11-21T04:23:15;101306.25;;;8.86;100.00
55301;BME280;58302;51.446;-2.000;2023-11-21T04:25:47;101313.56;;;8.85;100.00
55301;BME280;58302;51.446;-2.000;2023-11-21T04:28:37;101304.59;;;8.85;100.00
55301;BME280;58302;51.446;-2.000;2023-11-21T04:38:28;101322.00;;;8.77;100.00
55301;BME280;58302;51.446;-2.000;2023-11-21T04:50:47;101329.53;;;8.63;100.00
55301;BME280;58302;51.446;-2.000;2023-11-21T04:53:16;101338.91;;;8.61;100.00
55301;BME280;58302;51.446;-2.000;2023-11-21T04:55:55;101345.41;;;8.60;100.00
55301;BME280;58302;51.446;-2.000;2023-11-21T04:58:25;101355.66;;;8.58;100.00
55301;BME280;58302;51.446;-2.000;2023-11-21T05:00:53;101347.81;;;8.50;100.00
55301;BME280;58302;51.446;-2.000;2023-11-21T05:03:21;101353.72;;;8.47;100.00
55301;BME280;58302;51.446;-2.000;2023-11-21T05:06:03;101351.91;;;8.40;100.00
55301;BME280;58302;51.446;-2.000;2023-11-21T05:08:35;101356.78;;;8.32;100.00
55301;BME280;58302;51.446;-2.000;2023-11-21T05:14:11;101371.00;;;8.27;100.00
55301;BME280;58302;51.446;-2.000;2023-11-21T05:16:51;101368.97;;;8.23;100.00
55301;BME280;58302;51.446;-2.000;2023-11-21T05:19:26;101379.38;;;8.26;100.00
55301;BME280;58302;51.446;-2.000;2023-11-21T05:22:02;101378.00;;;8.16;100.00
55301;BME280;58302;51.446;-2.000;2023-11-21T05:24:42;101368.69;;;8.12;100.00
55301;BME280;58302;51.446;-2.000;2023-11-21T05:27:12;101373.75;;;8.09;100.00
55301;BME280;58302;51.446;-2.000;2023-11-21T05:29:38;101369.75;;;8.11;100.00
55301;BME280;58302;51.446;-2.000;2023-11-21T05:32:05;101381.03;;;8.08;100.00
55301;BME280;58302;51.446;-2.000;2023-11-21T05:34:34;101390.41;;;8.06;100.00
55301;BME280;58302;51.446;-2.000;2023-11-21T05:37:01;101376.28;;;8.04;100.00
55301;BME280;58302;51.446;-2.000;2023-11-21T05:39:27;101394.41;;;8.03;100.00
55301;BME280;58302;51.446;-2.000;2023-11-21T05:41:54;101400.44;;;8.05;100.00
55301;BME280;58302;51.446;-2.000;2023-11-21T05:44:20;101406.06;;;8.04;100.00
55301;BME280;58302;51.446;-2.000;2023-11-21T05:46:47;101386.38;;;7.97;100.00
55301;BME280;58302;51.446;-2.000;2023-11-21T05:49:18;101395.91;;;7.99;100.00
55301;BME280;58302;51.446;-2.000;2023-11-21T05:51:48;101397.19;;;7.97;100.00
55301;BME280;58302;51.446;-2.000;2023-11-21T05:54:14;101412.16;;;7.99;100.00
55301;BME280;58302;51.446;-2.000;2023-11-21T06:00:05;101421.09;;;8.00;100.00
55301;BME280;58302;51.446;-2.000;2023-11-21T06:03:08;101421.09;;;8.00;100.00
55301;BME280;58302;51.446;-2.000;2023-11-21T06:05:35;101428.84;;;7.96;100.00
55301;BME280;58302;51.446;-2.000;2023-11-21T06:08:01;101427.19;;;7.95;100.00
55301;BME280;58302;51.446;-2.000;2023-11-21T06:10:27;101426.97;;;7.97;100.00
55301;BME280;58302;51.446;-2.000;2023-11-21T06:13:05;101442.06;;;7.86;100.00
55301;BME280;58302;51.446;-2.000;2023-11-21T06:15:42;101444.91;;;7.91;100.00
55301;BME280;58302;51.446;-2.000;2023-11-21T06:18:47;101444.56;;;7.87;100.00
55301;BME280;58302;51.446;-2.000;2023-11-21T06:21:13;101452.44;;;7.89;100.00
55301;BME280;58302;51.446;-2.000;2023-11-21T06:23:40;101463.94;;;7.84;100.00
55301;BME280;58302;51.446;-2.000;2023-11-21T06:26:22;101454.53;;;7.87;100.00
55301;BME280;58302;51.446;-2.000;2023-11-21T06:29:06;101452.91;;;7.86;100.00
55301;BME280;58302;51.446;-2.000;2023-11-21T06:31:52;101455.59;;;7.86;100.00
55301;BME280;58302;51.446;-2.000;2023-11-21T06:37:30;101474.00;;;7.77;100.00
55301;BME280;58302;51.446;-2.000;2023-11-21T06:40:05;101468.19;;;7.74;100.00
55301;BME280;58302;51.446;-2.000;2023-11-21T06:45:55;101464.59;;;7.80;100.00
55301;BME280;58302;51.446;-2.000;2023-11-21T06:48:23;101473.16;;;7.77;100.00
55301;BME280;58302;51.446;-2.000;2023-11-21T06:50:53;101472.28;;;7.83;100.00
55301;BME280;58302;51.446;-2.000;2023-11-21T06:53:19;101491.81;;;7.85;100.00
55301;BME280;58302;51.446;-2.000;2023-11-21T06:55:45;101492.59;;;7.92;100.00
55301;BME280;58302;51.446;-2.000;2023-11-21T06:58:17;101510.59;;;7.80;100.00
55301;BME280;58302;51.446;-2.000;2023-11-21T07:00:44;101507.06;;;7.79;100.00
55301;BME280;58302;51.446;-2.000;2023-11-21T07:03:18;101515.41;;;7.78;100.00
55301;BME280;58302;51.446;-2.000;2023-11-21T07:05:53;101516.47;;;7.77;100.00
55301;BME280;58302;51.446;-2.000;2023-11-21T07:08:19;101522.47;;;7.79;100.00
55301;BME280;58302;51.446;-2.000;2023-11-21T07:10:51;101534.81;;;7.75;100.00
55301;BME280;58302;51.446;-2.000;2023-11-21T07:13:30;101536.47;;;7.76;100.00
55301;BME280;58302;51.446;-2.000;2023-11-21T07:15:59;101550.88;;;7.70;100.00
55301;BME280;58302;51.446;-2.000;2023-11-21T07:18:25;101548.97;;;7.70;100.00
55301;BME280;58302;51.446;-2.000;2023-11-21T07:20:52;101549.75;;;7.77;100.00
55301;BME280;58302;51.446;-2.000;2023-11-21T07:23:20;101552.88;;;7.74;100.00
55301;BME280;58302;51.446;-2.000;2023-11-21T07:25:49;101552.72;;;7.69;100.00
55301;BME280;58302;51.446;-2.000;2023-11-21T07:28:24;101558.69;;;7.78;100.00
55301;BME280;58302;51.446;-2.000;2023-11-21T07:30:51;101554.28;;;7.83;100.00
55301;BME280;58302;51.446;-2.000;2023-11-21T07:33:17;101553.03;;;7.86;100.00
55301;BME280;58302;51.446;-2.000;2023-11-21T07:35:44;101565.88;;;7.90;100.00
55301;BME280;58302;51.446;-2.000;2023-11-21T07:38:10;101566.34;;;7.87;100.00
55301;BME280;58302;51.446;-2.000;2023-11-21T07:40:36;101575.06;;;7.89;100.00
55301;BME280;58302;51.446;-2.000;2023-11-21T07:43:02;101569.41;;;7.91;100.00
55301;BME280;58302;51.446;-2.000;2023-11-21T07:45:40;101591.25;;;7.96;100.00
55301;BME280;58302;51.446;-2.000;2023-11-21T07:48:08;101588.34;;;7.98;100.00
55301;BME280;58302;51.446;-2.000;2023-11-21T07:51:11;101594.81;;;7.97;100.00
55301;BME280;58302;51.446;-2.000;2023-11-21T07:53:39;101597.06;;;8.00;100.00
55301;BME280;58302;51.446;-2.000;2023-11-21T07:56:07;101593.75;;;7.98;100.00
55301;BME280;58302;51.446;-2.000;2023-11-21T07:58:42;101601.63;;;7.99;100.00
55301;BME280;58302;51.446;-2.000;2023-11-21T08:01:11;101615.78;;;8.01;100.00
55301;BME280;58302;51.446;-2.000;2023-11-21T08:03:38;101612.88;;;8.03;100.00
55301;BME280;58302;51.446;-2.000;2023-11-21T08:06:07;101624.53;;;8.03;100.00
55301;BME280;58302;51.446;-2.000;2023-11-21T08:08:34;101630.31;;;8.07;100.00
55301;BME280;58302;51.446;-2.000;2023-11-21T08:11:07;101626.19;;;8.04;100.00
55301;BME280;58302;51.446;-2.000;2023-11-21T08:13:34;101625.94;;;8.06;100.00
55301;BME280;58302;51.446;-2.000;2023-11-21T08:16:02;101629.94;;;8.03;100.00
55301;BME280;58302;51.446;-2.000;2023-11-21T08:18:28;101637.66;;;8.00;100.00
55301;BME280;58302;51.446;-2.000;2023-11-21T08:20:59;101639.53;;;7.99;100.00
55301;BME280;58302;51.446;-2.000;2023-11-21T08:23:42;101642.25;;;7.99;100.00
55301;BME280;58302;51.446;-2.000;2023-11-21T08:26:15;101641.66;;;7.97;100.00
55301;BME280;58302;51.446;-2.000;2023-11-21T08:28:41;101640.41;;;7.93;100.00
55301;BME280;58302;51.446;-2.000;2023-11-21T08:31:07;101636.06;;;7.92;100.00
55301;BME280;58302;51.446;-2.000;2023-11-21T08:33:33;101632.94;;;7.88;100.00
55301;BME280;58302;51.446;-2.000;2023-11-21T08:36:07;101642.34;;;7.86;100.00
55301;BME280;58302;51.446;-2.000;2023-11-21T08:38:34;101646.47;;;7.88;100.00
55301;BME280;58302;51.446;-2.000;2023-11-21T08:41:21;101655.84;;;7.92;100.00
55301;BME280;58302;51.446;-2.000;2023-11-21T08:43:51;101656.19;;;7.96;100.00
55301;BME280;58302;51.446;-2.000;2023-11-21T08:46:18;101663.72;;;7.94;100.00
55301;BME280;58302;51.446;-2.000;2023-11-21T08:48:44;101668.72;;;7.97;100.00
55301;BME280;58302;51.446;-2.000;2023-11-21T08:51:11;101669.53;;;7.98;100.00
55301;BME280;58302;51.446;-2.000;2023-11-21T08:53:47;101679.50;;;8.04;100.00
55301;BME280;58302;51.446;-2.000;2023-11-21T08:56:20;101671.97;;;8.06;100.00
55301;BME280;58302;51.446;-2.000;2023-11-21T08:58:46;101673.59;;;8.13;100.00
55301;BME280;58302;51.446;-2.000;2023-11-21T09:01:17;101679.16;;;8.25;100.00
55301;BME280;58302;51.446;-2.000;2023-11-21T09:03:45;101672.03;;;8.31;100.00
55301;BME280;58302;51.446;-2.000;2023-11-21T09:06:12;101668.69;;;8.29;100.00
55301;BME280;58302;51.446;-2.000;2023-11-21T09:08:43;101674.28;;;8.34;100.00
55301;BME280;58302;51.446;-2.000;2023-11-21T09:11:09;101675.31;;;8.33;100.00
55301;BME280;58302;51.446;-2.000;2023-11-21T09:13:41;101688.47;;;8.36;100.00
55301;BME280;58302;51.446;-2.000;2023-11-21T09:16:17;101689.66;;;8.40;100.00
55301;BME280;58302;51.446;-2.000;2023-11-21T09:18:43;101695.72;;;8.42;100.00
55301;BME280;58302;51.446;-2.000;2023-11-21T09:21:16;101692.53;;;8.45;100.00
55301;BME280;58302;51.446;-2.000;2023-11-21T09:23:47;101704.22;;;8.45;100.00
55301;BME280;58302;51.446;-2.000;2023-11-21T09:26:13;101709.25;;;8.42;100.00
55301;BME280;58302;51.446;-2.000;2023-11-21T09:28:44;101701.50;;;8.45;100.00
55301;BME280;58302;51.446;-2.000;2023-11-21T09:31:14;101698.38;;;8.49;100.00
55301;BME280;58302;51.446;-2.000;2023-11-21T09:33:47;101693.78;;;8.49;100.00
55301;BME280;58302;51.446;-2.000;2023-11-21T09:36:14;101698.38;;;8.49;100.00
55301;BME280;58302;51.446;-2.000;2023-11-21T09:38:42;101701.69;;;8.51;100.00
55301;BME280;58302;51.446;-2.000;2023-11-21T09:41:30;101710.78;;;8.56;100.00
55301;BME280;58302;51.446;-2.000;2023-11-21T09:44:02;101715.22;;;8.51;100.00
55301;BME280;58302;51.446;-2.000;2023-11-21T09:46:34;101723.97;;;8.53;100.00
55301;BME280;58302;51.446;-2.000;2023-11-21T09:49:11;101725.69;;;8.47;100.00
55301;BME280;58302;51.446;-2.000;2023-11-21T09:51:46;101723.19;;;8.45;100.00
55301;BME280;58302;51.446;-2.000;2023-11-21T09:54:14;101716.91;;;8.52;100.00
55301;BME280;58302;51.446;-2.000;2023-11-21T09:56:42;101721.69;;;8.50;100.00
55301;BME280;58302;51.446;-2.000;2023-11-21T09:59:14;101717.09;;;8.50;100.00
55301;BME280;58302;51.446;-2.000;2023-11-21T10:01:42;101728.34;;;8.54;100.00
55301;BME280;58302;51.446;-2.000;2023-11-21T10:04:10;101737.13;;;8.49;100.00
55301;BME280;58302;51.446;-2.000;2023-11-21T10:06:40;101726.06;;;8.51;100.00
55301;BME280;58302;51.446;-2.000;2023-11-21T10:09:13;101735.19;;;8.56;100.00
55301;BME280;58302;51.446;-2.000;2023-11-21T10:11:41;101735.19;;;8.56;100.00
55301;BME280;58302;51.446;-2.000;2023-11-21T10:14:11;101740.59;;;8.56;100.00
55301;BME280;58302;51.446;-2.000;2023-11-21T10:16:38;101747.72;;;8.57;100.00
55301;BME280;58302;51.446;-2.000;2023-11-21T10:19:13;101753.31;;;8.56;100.00
55301;BME280;58302;51.446;-2.000;2023-11-21T10:21:40;101749.63;;;8.50;100.00
55301;BME280;58302;51.446;-2.000;2023-11-21T10:24:07;101747.97;;;8.49;100.00
55301;BME280;58302;51.446;-2.000;2023-11-21T10:26:34;101760.03;;;8.53;100.00
55301;BME280;58302;51.446;-2.000;2023-11-21T10:29:01;101766.03;;;8.55;100.00
55301;BME280;58302;51.446;-2.000;2023-11-21T10:31:42;101761.09;;;8.52;100.00
55301;BME280;58302;51.446;-2.000;2023-11-21T10:34:17;101771.28;;;8.50;100.00
55301;BME280;58302;51.446;-2.000;2023-11-21T10:36:44;101771.91;;;8.52;100.00
55301;BME280;58302;51.446;-2.000;2023-11-21T10:39:18;101775.47;;;8.53;100.00
55301;BME280;58302;51.446;-2.000;2023-11-21T10:41:45;101777.50;;;8.57;100.00
55301;BME280;58302;51.446;-2.000;2023-11-21T10:44:16;101785.19;;;8.60;100.00
55301;BME280;58302;51.446;-2.000;2023-11-21T10:46:48;101782.06;;;8.63;100.00
55301;BME280;58302;51.446;-2.000;2023-11-21T10:49:26;101786.66;;;8.63;100.00
55301;BME280;58302;51.446;-2.000;2023-11-21T10:51:53;101792.25;;;8.61;100.00
55301;BME280;58302;51.446;-2.000;2023-11-21T10:54:20;101796.44;;;8.64;100.00
55301;BME280;58302;51.446;-2.000;2023-11-21T10:56:49;101790.78;;;8.65;100.00
55301;BME280;58302;51.446;-2.000;2023-11-21T10:59:17;101795.31;;;8.71;100.00
55301;BME280;58302;51.446;-2.000;2023-11-21T11:01:47;101799.50;;;8.74;100.00
55301;BME280;58302;51.446;-2.000;2023-11-21T11:04:18;101808.44;;;8.75;100.00
55301;BME280;58302;51.446;-2.000;2023-11-21T11:06:50;101800.69;;;8.78;100.00
55301;BME280;58302;51.446;-2.000;2023-11-21T11:09:19;101796.50;;;8.82;100.00
55301;BME280;58302;51.446;-2.000;2023-11-21T11:11:46;101803.41;;;8.78;100.00
55301;BME280;58302;51.446;-2.000;2023-11-21T11:14:13;101802.56;;;8.78;100.00
55301;BME280;58302;51.446;-2.000;2023-11-21T11:16:40;101806.09;;;8.78;100.00
55301;BME280;58302;51.446;-2.000;2023-11-21T11:19:11;101805.91;;;8.80;100.00
55301;BME280;58302;51.446;-2.000;2023-11-21T11:24:44;101821.34;;;8.79;100.00
55301;BME280;58302;51.446;-2.000;2023-11-21T11:32:53;101821.13;;;8.81;100.00
55301;BME280;58302;51.446;-2.000;2023-11-21T11:38:23;101823.78;;;8.87;100.00
55301;BME280;58302;51.446;-2.000;2023-11-21T11:40:53;101834.19;;;8.90;100.00
55301;BME280;58302;51.446;-2.000;2023-11-21T11:43:26;101830.63;;;8.90;100.00
55301;BME280;58302;51.446;-2.000;2023-11-21T11:45:56;101840.44;;;8.91;100.00
55301;BME280;58302;51.446;-2.000;2023-11-21T11:48:22;101827.31;;;8.88;100.00
55301;BME280;58302;51.446;-2.000;2023-11-21T11:51:22;101845.28;;;8.82;100.00
55301;BME280;58302;51.446;-2.000;2023-11-21T11:53:48;101844.22;;;8.83;100.00
55301;BME280;58302;51.446;-2.000;2023-11-21T11:56:33;101852.59;;;8.82;100.00
55301;BME280;58302;51.446;-2.000;2023-11-21T11:59:03;101854.69;;;8.80;100.00
55301;BME280;58302;51.446;-2.000;2023-11-21T12:01:31;101857.84;;;8.77;100.00
55301;BME280;58302;51.446;-2.000;2023-11-21T12:07:02;101860.78;;;9.00;100.00
55301;BME280;58302;51.446;-2.000;2023-11-21T12:09:30;101854.88;;;9.10;100.00
55301;BME280;58302;51.446;-2.000;2023-11-21T12:11:57;101852.56;;;9.13;100.00
55301;BME280;58302;51.446;-2.000;2023-11-21T12:14:25;101846.81;;;9.03;100.00
55301;BME280;58302;51.446;-2.000;2023-11-21T12:16:51;101860.78;;;9.00;100.00
55301;BME280;58302;51.446;-2.000;2023-11-21T12:19:17;101848.91;;;9.01;100.00
55301;BME280;58302;51.446;-2.000;2023-11-21T12:21:44;101849.94;;;9.00;100.00
55301;BME280;58302;51.446;-2.000;2023-11-21T12:24:10;101853.81;;;9.11;100.00
55301;BME280;58302;51.446;-2.000;2023-11-21T12:26:40;101850.47;;;9.15;100.00
55301;BME280;58302;51.446;-2.000;2023-11-21T12:29:06;101860.25;;;9.16;100.00
55301;BME280;58302;51.446;-2.000;2023-11-21T12:31:34;101860.41;;;9.21;100.00
55301;BME280;58302;51.446;-2.000;2023-11-21T12:34:01;101860.06;;;9.11;100.00
55301;BME280;58302;51.446;-2.000;2023-11-21T12:36:27;101873.09;;;9.03;100.00
55301;BME280;58302;51.446;-2.000;2023-11-21T12:38:56;101877.47;;;9.04;100.00
55301;BME280;58302;51.446;-2.000;2023-11-21T12:41:22;101878.06;;;9.06;100.00
55301;BME280;58302;51.446;-2.000;2023-11-21T12:43:48;101877.81;;;9.14;100.00
55301;BME280;58302;51.446;-2.000;2023-11-21T12:46:15;101879.63;;;9.20;100.00
55301;BME280;58302;51.446;-2.000;2023-11-21T12:48:45;101887.72;;;9.27;100.00
55301;BME280;58302;51.446;-2.000;2023-11-21T12:51:15;101886.41;;;9.36;100.00
55301;BME280;58302;51.446;-2.000;2023-11-21T12:53:42;101893.72;;;9.35;100.00
55301;BME280;58302;51.446;-2.000;2023-11-21T12:56:12;101899.38;;;9.27;100.00
55301;BME280;58302;51.446;-2.000;2023-11-21T12:58:39;101895.44;;;9.30;100.00
55301;BME280;58302;51.446;-2.000;2023-11-21T13:01:06;101909.75;;;9.37;100.00
55301;BME280;58302;51.446;-2.000;2023-11-21T13:03:38;101904.50;;;9.42;100.00
55301;BME280;58302;51.446;-2.000;2023-11-21T13:06:05;101915.34;;;9.42;100.00
55301;BME280;58302;51.446;-2.000;2023-11-21T13:08:34;101902.84;;;9.41;100.00
55301;BME280;58302;51.446;-2.000;2023-11-21T13:11:00;101919.59;;;9.31;100.00
55301;BME280;58302;51.446;-2.000;2023-11-21T13:13:29;101929.84;;;9.29;100.00
55301;BME280;58302;51.446;-2.000;2023-11-21T13:15:56;101938.84;;;9.30;100.00
55301;BME280;58302;51.446;-2.000;2023-11-21T13:18:23;101931.88;;;9.34;100.00
55301;BME280;58302;51.446;-2.000;2023-11-21T13:20:50;101924.63;;;9.28;100.00
55301;BME280;58302;51.446;-2.000;2023-11-21T13:23:16;101926.16;;;9.23;100.00
55301;BME280;58302;51.446;-2.000;2023-11-21T13:25:43;101932.59;;;9.22;100.00
55301;BME280;58302;51.446;-2.000;2023-11-21T13:28:11;101931.75;;;9.29;100.00
55301;BME280;58302;51.446;-2.000;2023-11-21T13:30:38;101925.59;;;9.40;100.00
55301;BME280;58302;51.446;-2.000;2023-11-21T13:33:06;101922.59;;;9.48;100.00
55301;BME280;58302;51.446;-2.000;2023-11-21T13:35:36;101927.59;;;9.51;100.00
55301;BME280;58302;51.446;-2.000;2023-11-21T13:38:10;101940.13;;;9.52;100.00
55301;BME280;58302;51.446;-2.000;2023-11-21T13:40:39;101947.97;;;9.60;100.00
55301;BME280;58302;51.446;-2.000;2023-11-21T13:43:09;101938.72;;;9.68;100.00